D55

Robertson Field Airport

Langdon, North Dakota, USA
METAR KD55 201815Z AUTO 21012KT 10SM CLR 13/02 A3036 RMK AO2
Observed Flight Rules
Apr-20 @ 18:15 UTC (12 minutes ago) Visual Flight Rules
Wind Visibility Clouds
210° at 12 knots 10 miles
  • Clear skies
Temperatures Readings
Current 13°C / 55°F
Dewpoint 2°C / 36°F
Humidity 47%
Altimeter 30.36" Hg
Pressure 1028 hPa
Elevation 491
METAR KD55 201815Z AUTO 21012KT 10SM CLR 13/02 A3036 RMK AO2
Observed Flight Rules
Apr-20 @ 18:15 UTC
(12 minutes ago)
VFR
Wind Visibility
210° at 12 knots 10 miles
Clouds
  • Clear skies
Temperature Dewpoint
13°C / 55°F 2°C / 36°F
Humidity Altimeter Pressure
47% 30.36" Hg 1028 hPa